Alamo, TN

1:48 AM CDT on September 02, 2014 (GMT -0500)
Crossroads Community | Change Station
CLOSE
Current Station
Personal Weather Station
Location: Bells, TN
Elevation: 367 ft
Nearby Weather Stations

Elev 367 ft 35.74 °N, 89.12 °W | Updated 9 minutes ago

Clear
Clear
75.2 °F
Feels Like 74 °F
N
0.0
Wind Variable Wind from West

Today
High -- | Low -- °F
--% Chance of Precip.
Yesterday
High -- | Low -- °F
Precip. -- in
6:29 AM 7:22 PM
Waxing Crescent, 48% visible
Pressure 29.99 in
Visibility 10.0 miles
Clouds Clear
Heat Index 74 °F
Dew Point 72 °F
Humidity 91%
Rainfall 0.00 in
Snow Depth Not available.
UV 0 out of 12
Pollen 10.50 out of 12
Air Quality Not available.
Flu Activity Not available.
METAR KMKL 020553Z AUTO 19005KT 10SM CLR 24/21 A3000 RMK AO2 SLP153 T02440211 10283 20239 403220239 53007

More Conditions Fewer Conditions

Pressure 29.99 in
Visibility 10.0 miles
Clouds Clear
Heat Index 74 °F
Dew Point 72 °F
Humidity 91%
Rainfall 0.00 in
Snow Depth Not available.
UV 0 out of 12
Pollen 10.50 out of 12
Air Quality Not available.
Flu Activity Not available.
METAR KMKL 020553Z AUTO 19005KT 10SM CLR 24/21 A3000 RMK AO2 SLP153 T02440211 10283 20239 403220239 53007

More Conditions Fewer Conditions

10-Day Weather Forecast

Almanac

Astronomy

Sep. 02, 2014 Rise Set
Actual Time 6:29 AM CDT 7:22 PM CDT
Civil Twilight 6:03 AM CDT 7:48 PM CDT
Nautical Twilight 5:32 AM CDT 8:19 PM CDT
Astronomical Twilight 5:00 AM CDT 8:50 PM CDT
Moon 1:59 PM CDT No Moon Set
Length of Visible Light 13h 45m
Length of Day
12h 53m
Tomorrow will be 2m 11s shorter.
Waxing Crescent, 48% of the Moon is Illuminated
Today
Waxing Crescent
Sep 2
First Quarter
Sep 8
Full
Sep 15
Last Quarter
Sep 24
New

Today's Extremes

State Highs State Lows

Community

WunderPhotos

Upload Photos

1,749,589 photos uploaded!

WunderBlogs® & News

Nearby

Snow Depth

Station Depth Elevation
No new snow has been reported.

Earthquake Activity

City Distance Mag. Time & Date
Tiptonville, Tennessee 47 miles 2.9 11:19 PM CDT
2014-08-31
Minimum magnitude displayed is 2.5.

Coastal Water Temperatures

Place Temperature
No Stations Reporting

Nearby Weather Stations